Аэропорт: Ровно. Ровно

ICAO: UKLR

METAR:
2018/05/20 15:00
UKLR 201500Z 36005MPS 320V040 9999 SCT033 19/04 Q1021 NOSIG
METAR:
2014/02/13 15:15
TAF TAF UKLR 131410Z 1315/1524 27003MPS 1500 BR OVC004 
      TEMPO 1315/1324 0500 -RA FG OVC002 TX01/1315Z TN00/1321Z